Palisade, CO (81526)

6:37 PM MDT en Octubre 22, 2014 (GMT -0600)
Rapid Creek Road | Change Station
CLOSE
Current Station
Estación meteorológica personal
Location: Palisade, CO
Altura: 1517 m
Estaciones meteorológicas cercanas

Alt 1517 m 39.13 °N, 108.32 °W | Updated 22 seconds ago

Parcialmente nublado
Parcialmente nublado
15.8 ° C
Sensación térmica 15.8 ° C
N
4.8
Viento Variable Viento desde Sur
Gusts 4.8 km/h

Hoy
Alta -- | Baja -- ° C
--% Posibilidad de precipitaciones
Ayer
Alta -- | Baja -- ° C
Precip. -- mm
7:30 AM 6:24 PM
Creciente menguante, 1% visible
Presión 1016 hPa
Visibilidad 16.1 Kilómetros
Nubes Despejado
Punto de rocío 5 ° C
Humedad 48%
Precipitaciones 0 mm
Espesor de la nieve 0 in
UV 0 de una escala de 12
Polen 1.10 de una escala de 12
Calidad del aire No disponible.
Flu Activity Sporadic
METAR KGJT 222353Z 35007KT 10SM CLR 18/04 A3011 RMK AO2 SLP160 T01830039 10206 20150 53001

More Conditions Fewer Conditions

Presión 1016 hPa
Visibilidad 16.1 Kilómetros
Nubes Despejado
Punto de rocío 5 ° C
Humedad 48%
Precipitaciones 0 mm
Espesor de la nieve 0 in
UV 0 de una escala de 12
Polen 1.10 de una escala de 12
Calidad del aire No disponible.
Flu Activity Sporadic
METAR KGJT 222353Z 35007KT 10SM CLR 18/04 A3011 RMK AO2 SLP160 T01830039 10206 20150 53001

More Conditions Fewer Conditions

10-Day Weather Forecast

Almanac

Astronomía

Oct. 22, 2014 Salida Puesta
Hora real 7:30 AM MDT 6:24 PM MDT
Crepúsculo civil 7:03 AM MDT 6:52 PM MDT
Crepúsculo náutico 6:31 AM MDT 7:23 PM MDT
Crepúsculo astronómico 6:00 AM MDT 7:54 PM MDT
Luna 6:15 AM MDT (10/22) 5:52 PM MDT (10/22)
Horas de luz 11h 48m
Horas de luz
10h 54m
Tomorrow will be 2m 23s shorter.
Creciente menguante, 1% of the Moon is Illuminated
Hoy
Creciente menguante
Oct 23
Nueva
Oct 30
Cuarto creciente
Nov 6
Luna llena
Nov 14
Cuarto menguante

Extremos de hoy

Máximos del estado Bajos del estado

Community

WunderPhotos

Upload Photos

1,764,095 ¡fotos cargadas!

WunderBlogs® & News

Nearby

Grosos de nieve

Estación Profundido Altura
Mesa Lakes 0 in 10000 ft
Park Reservoir 0 in 9960 ft
Overland Reservoir 0 in 9880 ft
Columbine Pass 0 in 9400 ft
McClure Pass 0 in 9500 ft

Actividad de terremotos

Ciudad Distance Mag. Tiempo y dato
No hay informes recientes de la actividad sísmica.
Magnitud mínima muestra es 2,5.

Temperaturas de aguas costeras

Lugar Temperatura
Sin partes meteorológicos de las estaciones

Estaciones meteorológicas cercanas